createdAt,value
2022-09-28T00:02:01.271Z,98249.09
2022-09-28T00:04:28.624Z,98245.75
2022-09-28T00:06:57.285Z,98235.75
2022-09-28T00:09:24.585Z,98236.50
2022-09-28T00:11:52.646Z,98233.66
2022-09-28T00:14:20.435Z,98234.25
2022-09-28T00:16:48.860Z,98234.72
2022-09-28T00:19:16.692Z,98219.44
2022-09-28T00:21:44.216Z,98200.66
2022-09-28T00:24:18.876Z,98226.28
2022-09-28T00:26:48.687Z,98203.56
2022-09-28T00:29:22.169Z,98213.94
2022-09-28T00:31:52.486Z,98207.53
2022-09-28T00:34:19.841Z,98198.28
2022-09-28T00:36:48.279Z,98204.19
2022-09-28T00:39:17.243Z,98202.78
2022-09-28T00:41:45.716Z,98200.75
2022-09-28T00:44:38.804Z,98194.69
2022-09-28T00:47:33.112Z,98188.00
2022-09-28T00:50:03.435Z,98189.91
2022-09-28T00:52:36.646Z,98177.97
2022-09-28T00:55:09.003Z,98186.75
2022-09-28T00:57:43.981Z,98179.09
2022-09-28T01:00:12.934Z,98177.16
2022-09-28T01:02:40.484Z,98161.28
2022-09-28T01:05:10.437Z,98169.53
2022-09-28T01:07:38.363Z,98170.16
2022-09-28T01:10:08.572Z,98160.28
2022-09-28T01:12:36.113Z,98161.09
2022-09-28T01:15:05.682Z,98145.34
2022-09-28T01:17:45.251Z,98147.53
2022-09-28T01:20:27.713Z,98145.78
2022-09-28T01:23:34.310Z,98139.91
2022-09-28T01:26:25.228Z,98133.41
2022-09-28T01:28:57.030Z,98136.13
2022-09-28T01:31:29.378Z,98130.13
2022-09-28T01:34:00.543Z,98124.97
2022-09-28T01:36:30.831Z,98122.25
2022-09-28T01:39:02.144Z,98127.00
2022-09-28T01:41:33.566Z,98119.53
2022-09-28T01:44:03.399Z,98124.16
2022-09-28T01:46:37.295Z,98119.06
2022-09-28T01:49:11.393Z,98114.66
2022-09-28T01:51:43.392Z,98107.44
2022-09-28T01:54:13.796Z,98105.34
2022-09-28T01:56:50.631Z,98101.88
2022-09-28T01:59:22.670Z,98099.03
2022-09-28T02:01:54.674Z,98103.03
2022-09-28T02:04:28.019Z,98097.13
2022-09-28T02:07:00.062Z,98090.44
2022-09-28T02:09:33.948Z,98083.31
2022-09-28T02:12:11.763Z,98084.47
2022-09-28T02:14:40.907Z,98079.69
2022-09-28T02:17:10.154Z,98072.84
2022-09-28T02:19:38.402Z,98079.69
2022-09-28T02:22:23.393Z,98068.91
2022-09-28T02:24:56.829Z,98058.09
2022-09-28T02:27:34.509Z,98063.91
2022-09-28T02:30:02.652Z,98061.56
2022-09-28T02:32:34.315Z,98066.53
2022-09-28T02:35:02.044Z,98071.09
2022-09-28T02:37:30.930Z,98055.81
2022-09-28T02:39:58.857Z,98054.78
2022-09-28T02:42:34.974Z,98049.34
2022-09-28T02:45:14.844Z,98050.59
2022-09-28T02:47:56.685Z,98045.31
2022-09-28T02:50:34.511Z,98044.53
2022-09-28T02:53:21.451Z,98032.50
2022-09-28T02:56:03.688Z,98041.03
2022-09-28T02:58:40.615Z,98033.28
2022-09-28T03:01:19.750Z,98035.66
2022-09-28T03:03:57.407Z,98043.25
2022-09-28T03:06:32.340Z,98031.31
2022-09-28T03:09:05.963Z,98031.91
2022-09-28T03:11:40.831Z,98030.78
2022-09-28T03:14:11.339Z,98038.69
2022-09-28T03:16:46.893Z,98036.06
2022-09-28T03:19:16.465Z,98023.16
2022-09-28T03:21:43.759Z,98027.09
2022-09-28T03:24:11.290Z,98017.25
2022-09-28T03:26:38.893Z,98019.19
2022-09-28T03:29:06.702Z,98014.44
2022-09-28T03:31:35.988Z,98012.22
2022-09-28T03:34:03.489Z,98012.59
2022-09-28T03:36:31.447Z,98014.69
2022-09-28T03:38:59.692Z,98020.75
2022-09-28T03:41:28.023Z,98000.66
2022-09-28T03:43:55.622Z,98009.69
2022-09-28T03:46:25.073Z,97998.25
2022-09-28T03:48:59.371Z,97992.38
2022-09-28T03:51:27.104Z,97994.41
2022-09-28T03:53:54.295Z,97995.13
2022-09-28T03:56:21.627Z,97986.50
2022-09-28T03:58:49.021Z,97975.00
2022-09-28T04:01:17.519Z,97971.94
2022-09-28T04:03:46.912Z,97977.03
2022-09-28T04:06:15.741Z,97969.72
2022-09-28T04:08:43.601Z,97982.13
2022-09-28T04:11:11.521Z,97980.69
2022-09-28T04:13:38.965Z,97980.09
2022-09-28T04:16:11.766Z,97979.03
2022-09-28T04:18:42.623Z,97971.41
2022-09-28T04:21:37.661Z,97973.47
2022-09-28T04:24:10.709Z,97974.53
2022-09-28T04:26:38.376Z,97972.25
2022-09-28T04:29:18.322Z,97978.41
2022-09-28T04:31:55.392Z,97962.16
2022-09-28T04:34:37.089Z,97967.34
2022-09-28T04:37:07.531Z,97961.56
2022-09-28T04:39:35.041Z,97952.41
2022-09-28T04:42:02.379Z,97954.78
2022-09-28T04:44:29.696Z,97950.22
2022-09-28T04:47:04.996Z,97956.72
2022-09-28T04:49:35.518Z,97947.50
2022-09-28T04:52:19.615Z,97951.97
2022-09-28T04:54:49.442Z,97949.59
2022-09-28T04:57:17.003Z,97951.09
2022-09-28T04:59:44.255Z,97949.94
2022-09-28T05:02:14.013Z,97944.47
2022-09-28T05:04:59.898Z,97944.94
2022-09-28T05:07:29.002Z,97939.03
2022-09-28T05:09:57.742Z,97934.91
2022-09-28T05:12:25.147Z,97930.22
2022-09-28T05:14:52.601Z,97926.81
2022-09-28T05:17:19.798Z,97935.25
2022-09-28T05:20:07.121Z,97934.09
2022-09-28T05:22:35.716Z,97937.06
2022-09-28T05:25:05.220Z,97931.78
2022-09-28T05:27:41.988Z,97925.97
2022-09-28T05:30:24.298Z,97927.19
2022-09-28T05:33:31.499Z,97924.88
2022-09-28T05:36:11.164Z,97919.94
2022-09-28T05:38:40.294Z,97920.91
2022-09-28T05:41:07.861Z,97913.63
2022-09-28T05:43:35.284Z,97911.88
2022-09-28T05:46:05.161Z,97913.09
2022-09-28T05:48:34.138Z,97905.59
2022-09-28T05:51:01.918Z,97908.41
2022-09-28T05:53:29.350Z,97906.63
2022-09-28T05:55:59.864Z,97904.84
2022-09-28T05:58:28.378Z,97895.06
2022-09-28T06:00:58.524Z,97894.50
2022-09-28T06:03:25.974Z,97897.88
2022-09-28T06:05:54.258Z,97896.91
2022-09-28T06:08:21.756Z,97895.94
2022-09-28T06:11:01.531Z,97893.81
2022-09-28T06:13:29.178Z,97894.38
2022-09-28T06:15:56.616Z,97900.81
2022-09-28T06:18:24.362Z,97896.09
2022-09-28T06:21:19.782Z,97903.38
2022-09-28T06:23:49.443Z,97901.47
2022-09-28T06:26:19.681Z,97909.13
2022-09-28T06:28:47.183Z,97896.19
2022-09-28T06:31:15.916Z,97903.13
2022-09-28T06:33:48.642Z,97909.81
2022-09-28T06:36:16.049Z,97909.03
2022-09-28T06:38:43.367Z,97899.59
2022-09-28T06:41:11.875Z,97907.06
2022-09-28T06:43:43.482Z,97906.09
2022-09-28T06:46:14.384Z,97897.84
2022-09-28T06:48:50.988Z,97898.59
2022-09-28T06:51:38.176Z,97897.47
2022-09-28T06:54:18.868Z,97901.63
2022-09-28T06:56:54.510Z,97910.94
2022-09-28T06:59:23.464Z,97908.00
2022-09-28T07:01:51.804Z,97902.72
2022-09-28T07:04:23.000Z,97899.00
2022-09-28T07:07:22.805Z,97886.22
2022-09-28T07:11:29.268Z,97883.69
2022-09-28T08:08:03.249Z,97875.19
2022-09-28T08:10:31.619Z,97873.72
2022-09-28T08:13:40.103Z,97872.47
2022-09-28T08:16:25.785Z,97871.13
2022-09-28T08:19:25.413Z,97879.81
2022-09-28T08:21:53.297Z,97888.69
2022-09-28T08:24:24.098Z,97880.66
2022-09-28T08:26:51.542Z,97882.25
2022-09-28T08:29:19.003Z,97885.78
2022-09-28T08:31:52.056Z,97879.47
2022-09-28T08:34:35.132Z,97871.19
2022-09-28T08:37:25.319Z,97875.94
2022-09-28T08:40:18.683Z,97868.50
2022-09-28T08:43:20.461Z,97865.19
2022-09-28T08:46:13.415Z,97864.19
2022-09-28T08:49:32.210Z,97859.06
2022-09-28T08:52:01.340Z,97858.69
2022-09-28T08:54:41.755Z,97862.81
2022-09-28T08:57:21.068Z,97865.59
2022-09-28T08:59:51.760Z,97858.88
2022-09-28T09:02:33.832Z,97854.94
2022-09-28T09:05:20.057Z,97870.69
2022-09-28T09:08:25.557Z,97859.25
2022-09-28T09:11:01.651Z,97870.84
2022-09-28T09:14:23.295Z,97870.66
2022-09-28T09:17:02.131Z,97871.22
2022-09-28T09:20:11.509Z,97851.91
2022-09-28T09:23:12.241Z,97867.88
2022-09-28T09:25:42.565Z,97881.31
2022-09-28T09:28:43.878Z,97879.53
2022-09-28T09:31:27.344Z,97878.75
2022-09-28T09:34:16.394Z,97866.91
2022-09-28T09:37:07.715Z,97883.47
2022-09-28T09:40:28.798Z,97885.69
2022-09-28T09:43:17.516Z,97884.72
2022-09-28T09:46:04.276Z,97883.34
2022-09-28T09:48:44.670Z,97891.41
2022-09-28T09:51:23.301Z,97880.38
2022-09-28T09:53:55.604Z,97872.88
2022-09-28T09:56:34.753Z,97876.03
2022-09-28T09:59:14.137Z,97895.88
2022-09-28T10:02:03.077Z,97887.81
2022-09-28T10:04:55.089Z,97896.09
2022-09-28T10:07:43.126Z,97897.09
2022-09-28T10:10:17.415Z,97895.50
2022-09-28T10:12:49.821Z,97892.97
2022-09-28T10:15:22.337Z,97880.94
2022-09-28T10:18:09.152Z,97892.78
2022-09-28T10:20:56.372Z,97883.13
2022-09-28T10:24:02.939Z,97885.91
2022-09-28T10:26:36.011Z,97887.69
2022-09-28T10:29:11.782Z,97888.69
2022-09-28T10:31:42.027Z,97881.97
2022-09-28T10:34:32.486Z,97888.09
2022-09-28T10:37:10.049Z,97887.91
2022-09-28T10:40:20.083Z,97878.84
2022-09-28T10:42:47.729Z,97877.66
2022-09-28T10:45:21.010Z,97884.75
2022-09-28T10:47:49.359Z,97880.22
2022-09-28T10:50:22.036Z,97881.22
2022-09-28T10:52:52.304Z,97867.22
2022-09-28T10:56:00.673Z,97866.22
2022-09-28T10:58:32.067Z,97878.84
2022-09-28T11:01:05.998Z,97872.94
2022-09-28T11:03:33.386Z,97883.59
2022-09-28T11:06:07.774Z,97870.19
2022-09-28T11:08:38.690Z,97887.50
2022-09-28T11:11:11.691Z,97878.44
2022-09-28T11:13:45.216Z,97875.09
2022-09-28T11:16:21.877Z,97878.47
2022-09-28T11:18:51.989Z,97886.34
2022-09-28T11:21:24.943Z,97890.28
2022-09-28T11:24:06.615Z,97889.50
2022-09-28T11:26:41.708Z,97890.06
2022-09-28T11:29:26.953Z,97903.22
2022-09-28T11:32:15.881Z,97895.94
2022-09-28T11:35:03.183Z,97898.13
2022-09-28T11:37:53.612Z,97898.69
2022-09-28T11:40:51.720Z,97902.44
2022-09-28T11:43:37.688Z,97905.59
2022-09-28T11:46:14.287Z,97905.41
2022-09-28T11:48:46.280Z,97899.31
2022-09-28T11:51:20.439Z,97897.50
2022-09-28T11:53:53.677Z,97899.47
2022-09-28T11:56:33.936Z,97904.00
2022-09-28T11:59:11.150Z,97905.56
2022-09-28T12:01:48.186Z,97910.06
2022-09-28T12:04:40.047Z,97907.69
2022-09-28T12:07:16.753Z,97907.31
2022-09-28T12:09:50.676Z,97914.59
2022-09-28T12:12:25.658Z,97910.72
2022-09-28T12:15:01.651Z,97906.16
2022-09-28T12:17:35.741Z,97909.13
2022-09-28T12:20:12.830Z,97919.38
2022-09-28T12:22:46.093Z,97920.19
2022-09-28T12:25:17.353Z,97915.06
2022-09-28T12:27:51.153Z,97912.28
2022-09-28T12:30:21.475Z,97910.72
2022-09-28T12:32:52.576Z,97921.78
2022-09-28T12:35:36.312Z,97914.84
2022-09-28T12:38:24.610Z,97910.50
2022-09-28T12:40:57.737Z,97910.31
2022-09-28T12:43:40.710Z,97913.06
2022-09-28T12:46:28.825Z,97914.25
2022-09-28T12:52:07.615Z,97914.25
2022-09-28T12:54:58.066Z,97907.19
2022-09-28T12:57:40.336Z,97904.84
2022-09-28T13:00:12.413Z,97913.50
2022-09-28T13:03:01.482Z,97906.97
2022-09-28T13:06:00.503Z,97916.25
2022-09-28T13:08:37.399Z,97912.28
2022-09-28T13:11:16.316Z,97906.16
2022-09-28T13:13:53.132Z,97905.97
2022-09-28T13:16:28.689Z,97909.88
2022-09-28T13:19:07.748Z,97906.16
2022-09-28T13:21:41.208Z,97912.06
2022-09-28T13:24:31.693Z,97903.19
2022-09-28T13:27:10.352Z,97904.78
2022-09-28T13:32:13.149Z,97906.59
2022-09-28T13:34:42.855Z,97905.19
2022-09-28T13:37:20.935Z,97905.59
2022-09-28T13:39:52.347Z,97909.94
2022-09-28T13:42:47.479Z,97905.81
2022-09-28T13:45:42.518Z,97912.28
2022-09-28T13:48:20.518Z,97906.78
2022-09-28T13:51:33.970Z,97905.75
2022-09-28T13:54:18.375Z,97900.81
2022-09-28T13:56:55.811Z,97902.56
2022-09-28T13:59:28.769Z,97908.50
2022-09-28T14:02:06.772Z,97908.31
2022-09-28T14:04:56.847Z,97908.09
2022-09-28T14:07:46.891Z,97923.41
2022-09-28T14:10:21.046Z,97919.22
2022-09-28T14:12:49.834Z,97912.91
2022-09-28T14:15:40.017Z,97923.50
2022-09-28T14:18:19.271Z,97926.63
2022-09-28T14:20:57.374Z,97925.84
2022-09-28T14:23:46.880Z,97926.06
2022-09-28T14:27:01.449Z,97935.72
2022-09-28T14:29:30.067Z,97924.09
2022-09-28T14:31:58.850Z,97936.88
2022-09-28T14:34:38.306Z,97936.50
2022-09-28T14:37:39.370Z,97954.19
2022-09-28T14:40:36.293Z,97954.97
2022-09-28T14:43:26.831Z,97957.72
2022-09-28T14:46:27.119Z,97965.03
2022-09-28T14:48:55.786Z,97966.41
2022-09-28T14:52:05.313Z,97960.84
2022-09-28T14:54:45.405Z,97976.09
2022-09-28T14:57:25.555Z,97983.19
2022-09-28T14:59:54.079Z,97992.84
2022-09-28T15:02:25.007Z,97990.63
2022-09-28T15:04:55.889Z,97976.84
2022-09-28T15:07:25.298Z,97982.16
2022-09-28T15:09:54.219Z,97982.75
2022-09-28T15:12:27.093Z,97994.53
2022-09-28T15:14:57.721Z,98000.63
2022-09-28T15:17:27.616Z,98001.59
2022-09-28T15:20:17.330Z,97998.06
2022-09-28T15:22:46.760Z,98016.19
2022-09-28T15:25:16.665Z,98014.63
2022-09-28T15:27:47.391Z,98017.78
2022-09-28T15:30:25.403Z,98018.75
2022-09-28T15:32:54.810Z,98020.34
2022-09-28T15:35:25.045Z,98030.16
2022-09-28T15:37:54.419Z,98023.28
2022-09-28T15:40:29.583Z,98036.41
2022-09-28T15:42:59.528Z,98027.78
2022-09-28T15:45:32.116Z,98027.59
2022-09-28T15:48:18.232Z,98032.16
2022-09-28T15:50:58.422Z,98033.13
2022-09-28T15:53:26.695Z,98031.19
2022-09-28T15:56:03.642Z,98023.44
2022-09-28T15:58:32.349Z,98029.88
2022-09-28T16:01:25.854Z,98027.28
2022-09-28T16:03:53.148Z,98027.63
2022-09-28T16:06:20.773Z,98026.31
2022-09-28T16:08:50.908Z,98026.88
2022-09-28T16:11:21.382Z,98023.97
2022-09-28T16:14:06.079Z,98025.75
2022-09-28T16:16:35.580Z,98018.97
2022-09-28T16:19:03.800Z,98029.03
2022-09-28T16:21:43.609Z,98035.91
2022-09-28T16:24:20.606Z,98036.28
2022-09-28T16:26:49.472Z,98044.13
2022-09-28T16:29:27.819Z,98038.22
2022-09-28T16:31:55.745Z,98030.72
2022-09-28T16:34:26.531Z,98029.94
2022-09-28T16:36:54.327Z,98031.53
2022-09-28T16:39:22.005Z,98027.41
2022-09-28T16:41:52.910Z,98033.13
2022-09-28T16:44:26.041Z,98023.28
2022-09-28T16:46:55.977Z,98029.78
2022-09-28T16:49:25.632Z,98035.69
2022-09-28T16:51:52.994Z,98032.72
2022-09-28T16:54:41.109Z,98042.50
2022-09-28T16:57:09.827Z,98043.06
2022-09-28T16:59:38.769Z,98038.31
2022-09-28T17:05:10.263Z,98049.34
2022-09-28T17:07:37.531Z,98044.22
2022-09-28T17:10:15.568Z,98046.78
2022-09-28T17:12:42.770Z,98054.28
2022-09-28T17:15:12.088Z,98054.63
2022-09-28T17:17:41.250Z,98052.44
2022-09-28T17:20:20.520Z,98057.91
2022-09-28T17:22:47.801Z,98052.00
2022-09-28T17:25:15.443Z,98059.69
2022-09-28T17:27:45.517Z,98056.78
2022-09-28T17:30:15.629Z,98053.00
2022-09-28T17:32:45.850Z,98057.50
2022-09-28T17:35:24.141Z,98057.63
2022-09-28T17:37:52.103Z,98064.34
2022-09-28T17:40:21.404Z,98069.00
2022-09-28T17:42:49.068Z,98063.84
2022-09-28T17:45:18.397Z,98063.84
2022-09-28T17:47:45.728Z,98064.03
2022-09-28T17:50:21.271Z,98063.22
2022-09-28T17:52:52.225Z,98068.72
2022-09-28T17:55:21.074Z,98066.16
2022-09-28T17:57:48.626Z,98068.88
2022-09-28T18:00:17.901Z,98068.88
2022-09-28T18:02:45.658Z,98070.09
2022-09-28T18:05:16.864Z,98072.25
2022-09-28T18:07:47.549Z,98071.28
2022-09-28T18:10:16.674Z,98059.81
2022-09-28T18:12:43.815Z,98069.69
2022-09-28T18:15:12.104Z,98063.53
2022-09-28T18:17:40.781Z,98059.56
2022-09-28T18:20:10.287Z,98060.19
2022-09-28T18:22:37.569Z,98069.84
2022-09-28T18:25:06.068Z,98067.47
2022-09-28T18:27:35.078Z,98061.16
2022-09-28T18:30:02.615Z,98057.63
2022-09-28T18:32:30.235Z,98051.91
2022-09-28T18:34:58.804Z,98046.22
2022-09-28T18:37:25.966Z,98042.84
2022-09-28T18:39:53.584Z,98046.63
2022-09-28T18:42:20.890Z,98048.84
2022-09-28T18:44:48.105Z,98053.50
2022-09-28T18:47:15.292Z,98049.72
2022-09-28T18:49:46.464Z,98049.72
2022-09-28T18:52:15.365Z,98052.59
2022-09-28T18:54:42.703Z,98056.19
2022-09-28T18:57:10.007Z,98059.88
2022-09-28T18:59:37.538Z,98063.78
2022-09-28T19:02:05.016Z,98066.75
2022-09-28T19:04:32.239Z,98064.44
2022-09-28T19:06:59.777Z,98057.81
2022-09-28T19:09:28.469Z,98058.06
2022-09-28T19:11:55.837Z,98061.88
2022-09-28T19:14:23.129Z,98065.63
2022-09-28T19:16:50.400Z,98060.53
2022-09-28T19:19:19.587Z,98055.84
2022-09-28T19:21:47.925Z,98069.59
2022-09-28T19:24:16.980Z,98054.94
2022-09-28T19:26:46.671Z,98072.22
2022-09-28T19:29:14.671Z,98074.09
2022-09-28T19:31:43.447Z,98076.25
2022-09-28T19:34:13.431Z,98067.91
2022-09-28T19:36:41.980Z,98068.47
2022-09-28T19:39:13.542Z,98069.19
2022-09-28T19:41:43.338Z,98077.91
2022-09-28T19:44:15.822Z,98085.34
2022-09-28T19:46:43.589Z,98083.00
2022-09-28T19:49:19.440Z,98086.91
2022-09-28T19:54:38.229Z,98098.13
2022-09-28T19:57:08.050Z,98094.44
2022-09-28T19:59:37.708Z,98091.09
2022-09-28T20:02:06.032Z,98090.84
2022-09-28T20:04:33.420Z,98095.88
2022-09-28T20:07:01.187Z,98096.91
2022-09-28T20:09:28.382Z,98092.28
2022-09-28T20:11:55.760Z,98095.28
2022-09-28T20:14:24.607Z,98104.72
2022-09-28T20:16:56.986Z,98102.75
2022-09-28T20:19:24.239Z,98109.59
2022-09-28T20:21:51.586Z,98108.88
2022-09-28T20:24:18.843Z,98108.84
2022-09-28T20:26:46.379Z,98117.63
2022-09-28T20:29:13.757Z,98126.25
2022-09-28T20:31:41.002Z,98131.19
2022-09-28T20:34:10.860Z,98124.88
2022-09-28T20:36:38.305Z,98130.53
2022-09-28T20:39:05.481Z,98133.25
2022-09-28T20:41:36.853Z,98149.00
2022-09-28T20:44:06.334Z,98152.69
2022-09-28T20:46:34.808Z,98152.06
2022-09-28T20:49:02.589Z,98163.03
2022-09-28T20:51:31.878Z,98155.88
2022-09-28T20:53:59.877Z,98156.66
2022-09-28T20:56:28.752Z,98149.53
2022-09-28T20:58:57.036Z,98161.44
2022-09-28T21:01:25.659Z,98153.31
2022-09-28T21:03:55.114Z,98154.84
2022-09-28T21:06:26.188Z,98155.66
2022-09-28T21:08:54.805Z,98157.19
2022-09-28T21:11:23.844Z,98164.31
2022-09-28T21:13:53.387Z,98159.22
2022-09-28T21:16:20.834Z,98159.22
2022-09-28T21:18:48.519Z,98163.72
2022-09-28T21:21:17.333Z,98157.13
2022-09-28T21:23:45.157Z,98167.41
2022-09-28T21:26:16.155Z,98160.75
2022-09-28T21:28:44.886Z,98165.84
2022-09-28T21:31:12.979Z,98166.28
2022-09-28T21:33:40.297Z,98167.88
2022-09-28T21:36:08.697Z,98171.03
2022-09-28T21:38:36.076Z,98169.09
2022-09-28T21:41:03.785Z,98168.63
2022-09-28T21:43:32.449Z,98165.84
2022-09-28T21:45:59.670Z,98165.59
2022-09-28T21:48:28.546Z,98179.13
2022-09-28T21:50:57.102Z,98168.66
2022-09-28T21:53:24.951Z,98171.66
2022-09-28T21:55:53.117Z,98180.38
2022-09-28T21:58:23.282Z,98167.41
2022-09-28T22:00:58.271Z,98181.59
2022-09-28T22:03:26.129Z,98174.28
2022-09-28T22:05:53.439Z,98174.28
2022-09-28T22:08:21.433Z,98179.56
2022-09-28T22:11:00.852Z,98186.28
2022-09-28T22:13:28.600Z,98182.41
2022-09-28T22:16:00.820Z,98180.63
2022-09-28T22:18:29.202Z,98177.81
2022-09-28T22:21:00.194Z,98179.03
2022-09-28T22:23:27.902Z,98188.28
2022-09-28T22:25:59.684Z,98184.94
2022-09-28T22:28:27.769Z,98189.59
2022-09-28T22:30:56.651Z,98195.22
2022-09-28T22:33:23.948Z,98194.78
2022-09-28T22:35:51.459Z,98186.88
2022-09-28T22:38:18.731Z,98176.31
2022-09-28T22:40:49.224Z,98186.19
2022-09-28T22:43:17.088Z,98187.03
2022-09-28T22:45:44.878Z,98181.34
2022-09-28T22:48:13.531Z,98183.88
2022-09-28T22:50:48.597Z,98188.56
2022-09-28T22:53:16.084Z,98193.47
2022-09-28T22:55:43.350Z,98193.66
2022-09-28T22:58:10.602Z,98191.72
2022-09-28T23:00:39.032Z,98191.88
2022-09-28T23:03:06.216Z,98188.38
2022-09-28T23:05:35.107Z,98202.34
2022-09-28T23:08:02.732Z,98192.06
2022-09-28T23:10:29.883Z,98199.03
2022-09-28T23:12:57.060Z,98198.66
2022-09-28T23:15:25.227Z,98197.97
2022-09-28T23:17:53.036Z,98194.78
2022-09-28T23:20:20.429Z,98196.72
2022-09-28T23:22:49.511Z,98196.09
2022-09-28T23:25:17.934Z,98197.25
2022-09-28T23:27:46.619Z,98192.66
2022-09-28T23:30:14.572Z,98205.16
2022-09-28T23:32:42.383Z,98197.97
2022-09-28T23:35:10.280Z,98202.34
2022-09-28T23:37:38.067Z,98200.16
2022-09-28T23:40:07.574Z,98201.91
2022-09-28T23:42:35.645Z,98199.72
2022-09-28T23:45:02.950Z,98198.13
2022-09-28T23:47:30.802Z,98201.66
2022-09-28T23:49:57.898Z,98193.84
2022-09-28T23:52:25.473Z,98205.44
2022-09-28T23:54:52.689Z,98214.69
2022-09-28T23:57:21.343Z,98207.97
2022-09-28T23:59:48.519Z,98210.91
